Time;durP1;ratioP1;P1;durP2;ratioP2;P2;SDS_P1;SDS_P2;PMS_P1;PMS_P2;Temp;Humidity;BMP_temperature;BMP_pressure;BME280_temperature;BME280_humidity;BME280_pressure;Samples;Min_cycle;Max_cycle;Signal;HPM_P1;HPM_P2
2022/11/10 00:00:56;;;;;;;11.55;2.38;;;9.60;99.90;;;;;;5015616;28;21291;-77
2022/11/10 00:03:27;;;;;;;13.82;1.90;;;9.70;99.90;;;;;;5019141;28;20042;-76
2022/11/10 00:05:54;;;;;;;13.65;2.28;;;9.60;99.90;;;;;;5023716;28;20416;-77
2022/11/10 00:08:20;;;;;;;10.93;2.20;;;9.60;99.90;;;;;;5022870;28;20040;-76
2022/11/10 00:11:19;;;;;;;13.32;2.67;;;9.60;99.90;;;;;;5019053;28;20046;-77
2022/11/10 00:16:59;;;;;;;11.88;2.38;;;9.60;99.90;;;;;;4998630;28;20040;-77
2022/11/10 00:19:08;;;;;;;14.13;2.47;;;9.60;99.90;;;;;;5019239;28;20060;-75
2022/11/10 00:21:35;;;;;;;18.88;2.92;;;9.60;99.90;;;;;;5023264;28;20425;-76
2022/11/10 00:24:02;;;;;;;11.77;2.53;;;9.60;99.90;;;;;;5019915;28;20197;-74
2022/11/10 00:26:28;;;;;;;12.63;2.38;;;9.60;99.90;;;;;;5021697;28;20041;-76
2022/11/10 00:28:54;;;;;;;10.77;2.35;;;9.60;99.90;;;;;;5001485;28;20099;-76
2022/11/10 00:31:20;;;;;;;19.08;2.53;;;9.60;99.90;;;;;;5018484;28;20029;-76
2022/11/10 00:33:45;;;;;;;11.38;2.10;;;9.60;99.90;;;;;;5021184;28;20048;-76
2022/11/10 00:36:11;;;;;;;15.32;2.47;;;9.50;99.90;;;;;;5020412;28;20168;-76
2022/11/10 00:38:37;;;;;;;10.45;2.17;;;9.50;99.90;;;;;;5019657;28;20045;-76
2022/11/10 00:41:03;;;;;;;9.00;2.30;;;9.50;99.90;;;;;;5021640;28;20119;-75
2022/11/10 00:43:29;;;;;;;16.52;2.35;;;9.50;99.90;;;;;;5020780;28;20520;-77
2022/11/10 00:45:55;;;;;;;11.95;2.17;;;9.40;99.90;;;;;;5021160;28;20124;-76
2022/11/10 00:48:21;;;;;;;13.73;2.38;;;9.50;99.90;;;;;;5020070;28;21870;-76
2022/11/10 00:50:46;;;;;;;16.40;2.92;;;9.40;99.90;;;;;;5008286;28;20068;-76
2022/11/10 00:53:12;;;;;;;10.90;2.58;;;9.40;99.90;;;;;;5017097;28;20128;-75
2022/11/10 00:55:39;;;;;;;8.70;2.38;;;9.40;99.90;;;;;;5002301;28;20064;-77
2022/11/10 00:58:05;;;;;;;12.00;2.30;;;9.40;99.90;;;;;;5004892;28;20041;-77
2022/11/10 01:00:31;;;;;;;13.30;3.00;;;9.40;99.90;;;;;;5001964;28;20038;-77
2022/11/10 01:02:57;;;;;;;12.02;2.97;;;9.30;99.90;;;;;;5020492;28;20060;-77
2022/11/10 01:05:23;;;;;;;14.07;2.47;;;9.30;99.90;;;;;;5010970;28;20045;-77
2022/11/10 01:07:48;;;;;;;13.93;2.40;;;9.30;99.90;;;;;;5021106;28;20037;-76
2022/11/10 01:10:14;;;;;;;13.05;2.42;;;9.30;99.90;;;;;;5019135;28;20037;-77
2022/11/10 01:12:40;;;;;;;14.65;2.40;;;9.30;99.90;;;;;;5023750;28;20044;-76
2022/11/10 01:15:06;;;;;;;13.60;2.72;;;9.20;99.90;;;;;;5017964;28;20045;-76
2022/11/10 01:17:32;;;;;;;12.85;2.95;;;9.20;99.90;;;;;;5020175;28;20188;-77
2022/11/10 01:19:58;;;;;;;8.88;2.47;;;9.20;99.90;;;;;;5002341;28;20265;-78
2022/11/10 01:22:23;;;;;;;11.60;2.53;;;9.20;99.90;;;;;;5021012;28;20050;-76
2022/11/10 01:24:49;;;;;;;13.27;2.70;;;9.20;99.90;;;;;;5000137;28;20569;-76
2022/11/10 01:27:15;;;;;;;14.13;2.78;;;9.20;99.90;;;;;;5020280;28;20053;-75
2022/11/10 01:29:40;;;;;;;11.70;2.42;;;9.10;99.90;;;;;;5023645;28;20125;-78
2022/11/10 01:32:06;;;;;;;11.07;2.92;;;9.10;99.90;;;;;;5022498;28;20593;-76
2022/11/10 01:34:32;;;;;;;12.02;2.60;;;9.20;99.90;;;;;;5002005;28;20121;-77
2022/11/10 01:36:57;;;;;;;11.65;2.28;;;9.20;99.90;;;;;;5018039;28;20044;-78
2022/11/10 01:39:23;;;;;;;8.95;2.30;;;9.30;99.90;;;;;;5007855;28;20053;-75
2022/11/10 01:41:48;;;;;;;13.35;2.70;;;9.30;99.90;;;;;;5007489;28;20099;-75
2022/11/10 01:44:20;;;;;;;15.38;2.47;;;9.20;99.90;;;;;;5018040;28;20068;-75
2022/11/10 01:46:46;;;;;;;12.90;2.38;;;9.30;99.90;;;;;;5017449;28;20128;-74
2022/11/10 01:49:14;;;;;;;13.00;2.10;;;9.20;99.90;;;;;;5015179;28;20037;-75
2022/11/10 01:51:43;;;;;;;12.75;2.63;;;9.20;99.90;;;;;;5003605;28;20494;-75
2022/11/10 01:54:17;;;;;;;20.63;2.78;;;9.10;99.90;;;;;;5015956;28;20505;-75
2022/11/10 01:56:48;;;;;;;12.70;2.72;;;9.20;99.90;;;;;;5017089;28;20034;-76
2022/11/10 01:59:21;;;;;;;9.88;2.28;;;9.20;99.90;;;;;;5018919;28;20279;-76
2022/11/10 02:01:49;;;;;;;12.65;2.55;;;9.10;99.90;;;;;;5018184;28;20061;-75
2022/11/10 02:04:18;;;;;;;12.77;2.53;;;9.10;99.90;;;;;;4998674;28;20396;-76
2022/11/10 02:06:46;;;;;;;13.95;2.50;;;9.10;99.90;;;;;;5000853;28;20404;-76
2022/11/10 02:09:11;;;;;;;16.45;3.15;;;9.00;99.90;;;;;;5001410;28;20053;-75
2022/11/10 02:11:39;;;;;;;17.55;3.53;;;9.00;99.90;;;;;;5018979;28;20094;-76
2022/11/10 02:14:05;;;;;;;13.85;2.67;;;9.00;99.90;;;;;;5019882;28;20453;-75
2022/11/10 02:16:31;;;;;;;13.10;2.80;;;9.00;99.90;;;;;;5000907;28;20037;-76
2022/11/10 02:18:57;;;;;;;16.25;2.83;;;9.00;99.90;;;;;;5018126;28;20057;-75
2022/11/10 02:21:23;;;;;;;15.48;2.90;;;9.00;99.90;;;;;;5019795;28;20560;-76
2022/11/10 02:23:52;;;;;;;15.05;2.70;;;9.10;99.90;;;;;;5019338;28;20049;-77
2022/11/10 02:26:28;;;;;;;14.02;2.67;;;9.10;99.90;;;;;;5019091;28;20049;-77
2022/11/10 02:28:54;;;;;;;14.40;2.55;;;9.20;99.90;;;;;;5018133;28;20042;-77
2022/11/10 02:31:20;;;;;;;15.68;2.63;;;9.10;99.90;;;;;;5016412;28;20082;-77
2022/11/10 02:33:45;;;;;;;21.08;3.22;;;9.20;99.90;;;;;;5014273;28;20136;-76
2022/11/10 02:36:11;;;;;;;12.13;2.72;;;9.20;99.90;;;;;;5019382;28;20641;-76
2022/11/10 02:38:37;;;;;;;16.80;2.80;;;9.20;99.90;;;;;;5003426;28;20615;-77
2022/11/10 02:41:03;;;;;;;13.40;2.33;;;9.20;99.90;;;;;;5019675;28;20144;-75
2022/11/10 02:43:29;;;;;;;14.23;2.70;;;9.20;99.90;;;;;;5021136;28;20118;-77
2022/11/10 02:45:55;;;;;;;18.70;2.75;;;9.30;99.90;;;;;;4997934;28;20630;-75
2022/11/10 02:48:21;;;;;;;14.45;3.10;;;9.30;99.90;;;;;;4997550;28;20048;-76
2022/11/10 02:50:46;;;;;;;22.67;2.80;;;9.30;99.90;;;;;;5019279;28;20048;-75
2022/11/10 02:53:12;;;;;;;16.15;3.00;;;9.40;99.90;;;;;;5019913;28;20139;-75
2022/11/10 02:55:38;;;;;;;15.32;3.05;;;9.40;99.90;;;;;;5019651;28;20045;-75
2022/11/10 02:58:04;;;;;;;13.95;3.05;;;9.30;99.90;;;;;;5021284;28;20048;-75
2022/11/10 03:00:30;;;;;;;15.80;4.38;;;9.40;99.90;;;;;;5024279;28;20049;-77
2022/11/10 03:03:00;;;;;;;17.48;2.88;;;9.40;99.90;;;;;;5020937;28;20049;-75
2022/11/10 03:05:30;;;;;;;20.85;3.28;;;9.40;99.90;;;;;;5020317;28;20049;-76
2022/11/10 03:08:01;;;;;;;20.42;3.25;;;9.40;99.90;;;;;;5025186;28;20037;-76
2022/11/10 03:10:28;;;;;;;12.38;3.08;;;9.40;99.90;;;;;;5027097;28;20041;-76
2022/11/10 03:12:58;;;;;;;22.65;3.33;;;9.50;99.90;;;;;;5008925;28;20049;-75
2022/11/10 03:15:25;;;;;;;20.08;3.63;;;9.40;99.90;;;;;;5026514;28;20041;-76
2022/11/10 03:17:51;;;;;;;17.92;3.03;;;9.50;99.90;;;;;;5022590;28;20088;-76
2022/11/10 03:20:17;;;;;;;21.77;4.22;;;9.40;99.90;;;;;;5007837;28;20187;-76
2022/11/10 03:22:43;;;;;;;13.38;3.05;;;9.40;99.90;;;;;;5026351;28;20041;-76
2022/11/10 03:25:10;;;;;;;19.95;3.70;;;9.40;99.90;;;;;;5024661;28;20678;-76
2022/11/10 03:27:36;;;;;;;14.82;3.53;;;9.40;99.90;;;;;;5008574;28;20049;-76
2022/11/10 03:30:02;;;;;;;17.50;3.47;;;9.30;99.90;;;;;;5031078;28;20042;-76
2022/11/10 03:32:28;;;;;;;16.23;3.13;;;9.40;99.90;;;;;;5038511;28;20181;-76
2022/11/10 03:34:54;;;;;;;19.83;3.70;;;9.40;99.90;;;;;;5046449;28;20048;-77
2022/11/10 03:37:20;;;;;;;12.05;3.58;;;9.40;99.90;;;;;;5043345;28;20652;-76
2022/11/10 03:39:46;;;;;;;19.35;3.50;;;9.50;99.90;;;;;;5036750;28;20355;-77
2022/11/10 03:42:12;;;;;;;18.73;3.50;;;9.50;99.90;;;;;;5033345;28;20291;-76
2022/11/10 03:44:37;;;;;;;24.10;3.40;;;9.50;99.90;;;;;;5014152;28;20049;-76
2022/11/10 03:47:03;;;;;;;23.38;3.80;;;9.60;99.90;;;;;;5031192;28;20049;-75
2022/11/10 03:49:29;;;;;;;20.40;3.22;;;9.60;99.90;;;;;;5022339;28;20037;-76
2022/11/10 03:51:56;;;;;;;20.05;3.20;;;9.60;99.90;;;;;;5026221;28;20132;-76
2022/11/10 03:54:22;;;;;;;18.20;4.05;;;9.70;99.90;;;;;;5022674;28;20072;-76
2022/11/10 03:56:47;;;;;;;20.25;3.92;;;9.60;99.90;;;;;;5005494;28;20080;-76
2022/11/10 03:59:13;;;;;;;20.45;3.47;;;9.60;99.90;;;;;;5020913;28;20152;-76
2022/11/10 04:01:38;;;;;;;20.90;3.28;;;9.60;99.90;;;;;;5025700;28;20057;-76
2022/11/10 04:08:57;;;;;;;22.77;3.85;;;9.70;99.90;;;;;;5018931;28;20429;-75
2022/11/10 04:09:34;;;;;;;18.30;3.47;;;9.70;99.90;;;;;;5024728;28;20081;-75
2022/11/10 04:17:30;;;;;;;23.00;3.72;;;9.80;99.90;;;;;;5007104;28;20140;-76
2022/11/10 04:19:55;;;;;;;25.23;4.15;;;9.80;99.90;;;;;;5023921;28;20050;-76
2022/11/10 04:23:25;;;;;;;25.50;3.58;;;9.80;99.90;;;;;;5024669;28;20103;-76
2022/11/10 04:25:07;;;;;;;26.58;4.78;;;9.80;99.90;;;;;;5021715;28;20037;-76
2022/11/10 04:27:33;;;;;;;20.23;3.95;;;9.80;99.90;;;;;;5022536;28;20056;-75
2022/11/10 04:29:58;;;;;;;20.40;3.80;;;9.80;99.90;;;;;;5023661;28;20068;-77
2022/11/10 04:32:24;;;;;;;18.30;3.63;;;9.80;99.90;;;;;;5005587;28;20107;-77
2022/11/10 04:34:50;;;;;;;25.92;3.97;;;9.80;99.90;;;;;;5022117;28;20042;-77
2022/11/10 04:37:16;;;;;;;19.23;4.25;;;9.80;99.90;;;;;;5003434;28;21494;-77
2022/11/10 04:39:41;;;;;;;22.48;3.78;;;9.80;99.90;;;;;;5004226;28;20563;-77
2022/11/10 04:42:07;;;;;;;19.92;3.60;;;9.80;99.90;;;;;;5023896;28;20033;-77
2022/11/10 04:44:33;;;;;;;17.45;4.20;;;9.90;99.90;;;;;;5021857;28;20041;-77
2022/11/10 04:46:58;;;;;;;16.20;3.35;;;9.80;99.90;;;;;;5023810;28;20516;-77
2022/11/10 04:49:24;;;;;;;23.33;3.78;;;9.80;99.90;;;;;;5020618;28;20056;-77
2022/11/10 04:51:50;;;;;;;15.48;3.08;;;9.90;99.90;;;;;;5005478;28;20136;-78
2022/11/10 04:54:15;;;;;;;17.65;3.90;;;9.90;99.90;;;;;;5002925;28;20163;-76
2022/11/10 04:56:41;;;;;;;20.88;3.40;;;9.90;99.90;;;;;;5019264;28;20061;-76
2022/11/10 04:59:07;;;;;;;21.80;3.53;;;9.90;99.90;;;;;;5018603;28;20129;-76
2022/11/10 05:01:33;;;;;;;26.80;4.25;;;10.00;99.90;;;;;;5005348;28;20081;-77
2022/11/10 05:03:58;;;;;;;15.75;3.40;;;9.90;99.90;;;;;;5021331;28;20050;-76
2022/11/10 05:06:24;;;;;;;22.60;3.45;;;9.80;99.90;;;;;;5024294;28;20038;-77
2022/11/10 05:08:50;;;;;;;23.17;4.00;;;9.80;99.90;;;;;;5022600;28;20375;-76
2022/11/10 05:11:16;;;;;;;20.08;3.33;;;9.80;99.90;;;;;;5021595;28;20398;-76
2022/11/10 05:13:43;;;;;;;25.77;3.67;;;9.80;99.90;;;;;;5023121;28;20042;-77
2022/11/10 05:16:12;;;;;;;26.67;4.13;;;9.80;99.90;;;;;;5021595;28;20037;-78
2022/11/10 05:18:38;;;;;;;24.48;4.68;;;9.80;99.90;;;;;;5021656;28;20485;-77
2022/11/10 05:21:04;;;;;;;21.48;4.38;;;9.80;99.90;;;;;;5014553;28;20577;-75
2022/11/10 05:23:39;;;;;;;25.35;3.70;;;9.80;99.90;;;;;;5020170;28;20104;-77
2022/11/10 05:26:04;;;;;;;31.33;4.63;;;9.80;99.90;;;;;;5003100;28;20120;-76
2022/11/10 05:28:30;;;;;;;24.45;3.55;;;9.70;99.90;;;;;;5024775;28;20120;-76
2022/11/10 05:30:56;;;;;;;23.67;4.07;;;9.80;99.90;;;;;;5003081;28;20069;-74
2022/11/10 05:33:21;;;;;;;27.02;3.88;;;9.70;99.90;;;;;;5017632;28;20564;-77
2022/11/10 05:35:50;;;;;;;21.15;3.33;;;9.70;99.90;;;;;;5016496;28;20089;-76
2022/11/10 05:38:16;;;;;;;22.05;4.93;;;9.70;99.90;;;;;;5003301;28;20435;-76
2022/11/10 05:40:42;;;;;;;28.33;4.32;;;9.80;99.90;;;;;;5021874;28;20045;-75
2022/11/10 05:43:08;;;;;;;31.55;4.55;;;9.80;99.90;;;;;;5001600;28;20675;-76
2022/11/10 05:45:33;;;;;;;26.52;4.55;;;9.80;99.90;;;;;;5023713;28;20056;-76
2022/11/10 05:47:59;;;;;;;24.58;4.63;;;9.70;99.90;;;;;;5019349;28;20486;-76
2022/11/10 05:50:25;;;;;;;21.67;3.85;;;9.70;99.90;;;;;;5020477;28;20053;-77
2022/11/10 05:52:53;;;;;;;21.25;4.25;;;9.70;99.90;;;;;;5019230;28;20068;-77
2022/11/10 05:55:21;;;;;;;19.35;4.15;;;9.60;99.90;;;;;;5021630;28;20045;-76
2022/11/10 05:57:49;;;;;;;25.60;3.67;;;9.70;99.90;;;;;;5003944;28;20095;-76
2022/11/10 06:00:17;;;;;;;24.65;4.80;;;9.60;99.90;;;;;;4998795;28;20046;-76
2022/11/10 06:02:43;;;;;;;21.48;3.72;;;9.60;99.90;;;;;;4993292;28;20049;-77
2022/11/10 06:05:10;;;;;;;28.52;5.07;;;9.60;99.90;;;;;;5016460;28;20042;-75
2022/11/10 06:07:37;;;;;;;29.80;4.45;;;9.60;99.90;;;;;;5020529;28;20128;-76
2022/11/10 06:10:03;;;;;;;26.52;3.92;;;9.70;99.90;;;;;;5014653;28;20040;-75
2022/11/10 06:12:29;;;;;;;34.22;4.88;;;9.60;99.90;;;;;;5018269;28;20045;-76
2022/11/10 06:14:57;;;;;;;21.65;3.10;;;9.70;99.90;;;;;;5018884;28;20131;-78
2022/11/10 06:17:24;;;;;;;30.60;5.03;;;9.70;99.90;;;;;;5016836;28;20111;-78
2022/11/10 06:19:50;;;;;;;24.08;4.25;;;9.70;99.90;;;;;;5021053;28;20057;-77
2022/11/10 06:22:16;;;;;;;19.67;4.38;;;9.70;99.90;;;;;;5020831;28;20068;-77
2022/11/10 06:24:41;;;;;;;21.08;4.00;;;9.60;99.90;;;;;;5022787;28;20033;-78
2022/11/10 06:27:08;;;;;;;23.90;4.05;;;9.70;99.90;;;;;;5003983;28;20499;-78
2022/11/10 06:29:33;;;;;;;29.48;3.83;;;9.80;99.90;;;;;;5005704;28;20034;-83
2022/11/10 06:31:59;;;;;;;25.90;4.30;;;9.80;99.90;;;;;;5002349;28;20045;-84
2022/11/10 06:34:25;;;;;;;30.25;4.38;;;9.80;99.90;;;;;;5025364;28;20472;-82
2022/11/10 06:36:51;;;;;;;22.90;4.32;;;9.90;99.90;;;;;;4995912;28;20041;-82
2022/11/10 06:39:16;;;;;;;25.85;4.50;;;9.90;99.90;;;;;;5023548;28;20112;-82
2022/11/10 06:41:42;;;;;;;29.52;4.80;;;10.00;99.90;;;;;;5014485;28;20140;-83
2022/11/10 06:44:11;;;;;;;26.25;4.65;;;10.00;99.90;;;;;;5007020;28;20463;-81
2022/11/10 06:46:39;;;;;;;22.63;3.83;;;10.00;99.90;;;;;;5011789;28;20037;-83
2022/11/10 06:49:05;;;;;;;33.15;7.00;;;10.10;99.90;;;;;;5020687;28;20049;-81
2022/11/10 06:51:31;;;;;;;24.90;4.50;;;10.10;99.90;;;;;;5016367;28;20515;-81
2022/11/10 06:53:59;;;;;;;22.80;4.20;;;10.10;99.90;;;;;;4998709;28;20037;-83
2022/11/10 06:56:25;;;;;;;30.63;5.15;;;10.10;99.90;;;;;;5021167;28;20124;-82
2022/11/10 06:58:51;;;;;;;31.00;5.00;;;10.10;99.90;;;;;;5002997;28;20129;-83
2022/11/10 07:01:16;;;;;;;24.10;4.22;;;10.10;99.90;;;;;;5019311;28;20080;-81
2022/11/10 07:03:42;;;;;;;24.20;5.15;;;10.10;99.90;;;;;;5010472;28;20041;-78
2022/11/10 07:06:08;;;;;;;29.85;4.22;;;10.10;99.90;;;;;;5021973;28;20045;-78
2022/11/10 07:08:33;;;;;;;28.33;4.35;;;10.10;99.90;;;;;;5019355;28;20054;-77
2022/11/10 07:10:59;;;;;;;26.70;3.92;;;10.10;99.90;;;;;;5023726;28;20055;-80
2022/11/10 07:13:24;;;;;;;28.88;4.75;;;10.10;99.90;;;;;;5005648;28;20041;-80
2022/11/10 07:15:51;;;;;;;24.33;3.90;;;10.10;99.90;;;;;;5021493;28;20160;-82
2022/11/10 07:18:17;;;;;;;22.40;4.07;;;10.00;99.90;;;;;;5017756;28;20046;-82
2022/11/10 07:20:42;;;;;;;19.98;4.20;;;10.00;99.90;;;;;;5019313;28;20065;-82
2022/11/10 07:23:08;;;;;;;28.02;4.53;;;10.10;99.90;;;;;;5024360;28;20037;-81
2022/11/10 07:25:35;;;;;;;22.60;4.95;;;10.10;99.90;;;;;;5023669;28;20045;-81
2022/11/10 07:28:04;;;;;;;32.67;4.82;;;10.10;99.90;;;;;;5005559;28;20046;-82
2022/11/10 07:30:32;;;;;;;29.77;5.85;;;10.10;99.90;;;;;;5022987;28;20057;-82
2022/11/10 07:33:01;;;;;;;28.40;5.80;;;10.10;99.90;;;;;;5018298;28;20042;-82
2022/11/10 07:35:28;;;;;;;26.52;4.70;;;10.10;99.90;;;;;;5019427;28;20042;-75
2022/11/10 07:37:55;;;;;;;25.50;5.32;;;10.20;99.90;;;;;;5037006;28;20050;-77
2022/11/10 07:40:21;;;;;;;25.50;5.45;;;10.20;99.90;;;;;;5021057;28;20095;-76
2022/11/10 07:42:47;;;;;;;32.33;5.75;;;10.10;99.90;;;;;;5014584;28;20056;-77
2022/11/10 07:45:13;;;;;;;29.15;5.40;;;10.20;99.90;;;;;;5019093;28;20041;-77
2022/11/10 07:47:38;;;;;;;32.13;6.50;;;10.30;99.90;;;;;;5028891;28;20094;-77
2022/11/10 07:50:04;;;;;;;27.48;5.35;;;10.30;99.90;;;;;;5023423;28;20091;-77
2022/11/10 07:52:30;;;;;;;18.08;4.43;;;10.40;99.90;;;;;;5013180;28;20496;-77
2022/11/10 07:54:58;;;;;;;28.25;5.75;;;10.40;99.90;;;;;;5005567;28;20044;-75
2022/11/10 07:57:29;;;;;;;30.25;4.45;;;10.60;99.90;;;;;;5013309;28;20041;-79
2022/11/10 07:59:55;;;;;;;25.00;5.25;;;10.70;99.90;;;;;;5007740;28;20045;-79
2022/11/10 08:02:20;;;;;;;20.80;5.40;;;10.70;99.90;;;;;;5028319;28;20073;-79
2022/11/10 08:04:46;;;;;;;30.33;4.93;;;10.70;99.90;;;;;;5029854;28;20449;-79
2022/11/10 08:07:12;;;;;;;26.02;4.50;;;10.80;99.90;;;;;;5023301;28;20050;-78
2022/11/10 08:09:37;;;;;;;20.40;4.25;;;10.90;99.90;;;;;;5009171;28;20047;-80
2022/11/10 08:12:03;;;;;;;25.10;4.90;;;10.90;99.90;;;;;;5038719;28;20042;-78
2022/11/10 08:14:29;;;;;;;28.55;4.95;;;11.00;99.90;;;;;;5035938;28;20053;-78
2022/11/10 08:16:55;;;;;;;21.00;4.55;;;11.10;99.90;;;;;;5025909;28;20156;-78
2022/11/10 08:19:20;;;;;;;26.88;5.03;;;11.00;99.90;;;;;;5026316;28;20045;-78
2022/11/10 08:21:46;;;;;;;24.73;4.93;;;11.10;99.90;;;;;;5026132;28;20124;-79
2022/11/10 08:24:11;;;;;;;29.98;4.75;;;11.00;99.90;;;;;;5010211;28;20037;-78
2022/11/10 08:26:37;;;;;;;24.90;4.20;;;11.10;99.90;;;;;;5012248;28;20041;-79
2022/11/10 08:29:03;;;;;;;27.23;4.75;;;11.00;99.90;;;;;;5007921;28;20041;-78
2022/11/10 08:31:30;;;;;;;27.75;4.70;;;11.00;99.90;;;;;;5011207;28;20493;-78
2022/11/10 08:33:56;;;;;;;31.90;4.38;;;11.00;99.90;;;;;;5029750;28;20709;-79
2022/11/10 08:36:22;;;;;;;24.83;4.35;;;10.90;99.90;;;;;;5028487;28;20057;-79
2022/11/10 08:38:48;;;;;;;20.52;4.60;;;11.00;99.90;;;;;;5010847;28;20046;-78
2022/11/10 08:41:14;;;;;;;36.80;6.07;;;11.00;99.90;;;;;;5027929;28;20049;-77
2022/11/10 08:43:40;;;;;;;24.02;5.25;;;11.00;99.90;;;;;;5029322;28;20038;-78
2022/11/10 08:46:06;;;;;;;23.10;5.18;;;11.10;99.90;;;;;;5028215;28;20052;-78
2022/11/10 08:48:32;;;;;;;29.35;5.57;;;11.10;99.90;;;;;;5041605;28;20029;-78
2022/11/10 08:51:01;;;;;;;27.40;5.72;;;11.10;99.90;;;;;;5028790;28;20115;-79
2022/11/10 08:53:27;;;;;;;24.52;5.20;;;11.20;99.90;;;;;;5027205;28;20037;-78
2022/11/10 08:55:56;;;;;;;31.63;5.40;;;11.30;99.90;;;;;;5011902;28;20400;-78
2022/11/10 08:58:23;;;;;;;25.58;5.53;;;11.40;99.90;;;;;;5025154;28;20082;-78
2022/11/10 09:00:49;;;;;;;26.60;5.38;;;11.40;99.90;;;;;;5027520;28;20045;-78
2022/11/10 09:03:20;;;;;;;17.23;4.97;;;11.50;99.90;;;;;;5026664;28;20057;-79
2022/11/10 09:05:47;;;;;;;24.50;4.35;;;11.50;99.90;;;;;;5029129;28;20049;-78
2022/11/10 09:08:14;;;;;;;27.65;4.43;;;11.50;99.90;;;;;;5027358;28;20052;-79
2022/11/10 09:10:43;;;;;;;21.60;5.75;;;11.50;99.90;;;;;;5030595;28;20393;-78
2022/11/10 09:13:10;;;;;;;22.60;5.70;;;11.50;99.90;;;;;;5028516;28;20209;-77
2022/11/10 09:15:35;;;;;;;25.48;6.40;;;11.50;99.90;;;;;;5021988;28;20037;-79
2022/11/10 09:18:03;;;;;;;31.75;6.57;;;11.50;99.90;;;;;;5026765;28;20045;-78
2022/11/10 09:20:30;;;;;;;25.40;5.68;;;11.60;99.90;;;;;;5027862;28;20253;-80
2022/11/10 09:23:02;;;;;;;28.73;7.90;;;11.60;99.90;;;;;;5012465;28;20460;-79
2022/11/10 09:25:28;;;;;;;23.38;6.43;;;11.50;99.90;;;;;;5028889;28;20042;-78
2022/11/10 09:27:56;;;;;;;25.38;6.05;;;11.60;99.90;;;;;;5027133;28;20435;-78
2022/11/10 09:30:22;;;;;;;29.75;6.45;;;11.70;99.90;;;;;;5007679;28;20061;-79
2022/11/10 09:32:53;;;;;;;29.75;6.05;;;11.70;99.90;;;;;;5028839;28;20056;-79
2022/11/10 09:35:19;;;;;;;27.48;5.32;;;11.80;99.90;;;;;;5029774;28;20043;-79
2022/11/10 09:37:44;;;;;;;23.63;6.10;;;11.90;99.90;;;;;;5033933;28;20060;-79
2022/11/10 09:40:17;;;;;;;29.98;8.13;;;11.90;99.90;;;;;;5044350;28;20041;-78
2022/11/10 09:42:45;;;;;;;28.83;9.73;;;11.90;99.90;;;;;;5045761;28;20052;-79
2022/11/10 09:45:20;;;;;;;35.15;10.10;;;11.90;99.90;;;;;;5044789;28;20068;-78
2022/11/10 09:48:06;;;;;;;23.83;6.28;;;11.90;99.90;;;;;;5048424;28;20068;-79
2022/11/10 09:50:47;;;;;;;24.13;6.43;;;11.90;99.90;;;;;;5030394;28;20045;-77
2022/11/10 09:53:20;;;;;;;21.38;6.85;;;11.90;99.90;;;;;;5023378;28;20413;-78
2022/11/10 09:55:50;;;;;;;21.63;7.22;;;12.00;99.90;;;;;;5025837;28;20072;-80
2022/11/10 09:58:18;;;;;;;20.35;6.57;;;11.90;99.90;;;;;;5026824;28;20056;-79
2022/11/10 10:01:21;;;;;;;28.42;7.75;;;12.00;99.90;;;;;;5018877;28;20140;-80
2022/11/10 10:03:58;;;;;;;20.48;5.95;;;12.00;99.90;;;;;;4996458;28;20074;-80
2022/11/10 10:06:24;;;;;;;26.33;6.35;;;12.10;99.90;;;;;;5008035;28;20050;-79
2022/11/10 10:09:14;;;;;;;21.20;5.78;;;12.10;99.90;;;;;;5026862;28;20059;-79
2022/11/10 10:11:48;;;;;;;24.02;5.88;;;12.20;99.90;;;;;;5026140;28;20045;-78
2022/11/10 10:14:41;;;;;;;30.45;5.70;;;12.20;99.90;;;;;;5007084;28;20086;-79
2022/11/10 10:17:29;;;;;;;26.73;5.72;;;12.20;99.90;;;;;;5026563;28;20052;-78
2022/11/10 10:20:00;;;;;;;23.90;5.47;;;12.20;99.90;;;;;;5035224;28;20041;-80
2022/11/10 10:22:47;;;;;;;28.88;6.32;;;12.20;99.90;;;;;;5026944;28;20049;-79
2022/11/10 10:25:21;;;;;;;22.77;5.10;;;12.30;99.90;;;;;;5023334;28;20054;-78
2022/11/10 10:27:53;;;;;;;24.15;5.72;;;12.20;99.90;;;;;;5027503;28;20079;-79
2022/11/10 10:30:19;;;;;;;25.93;5.63;;;12.20;99.90;;;;;;5021187;28;20116;-79
2022/11/10 10:32:45;;;;;;;23.90;5.30;;;12.40;99.90;;;;;;5027608;28;20188;-79
2022/11/10 10:35:16;;;;;;;22.48;6.00;;;12.30;99.90;;;;;;5026211;28;20077;-78
2022/11/10 10:37:50;;;;;;;22.38;5.80;;;12.30;99.90;;;;;;5007465;28;20034;-78
2022/11/10 10:40:19;;;;;;;27.48;6.60;;;12.30;99.90;;;;;;5021581;28;20052;-79
2022/11/10 10:42:45;;;;;;;25.85;6.00;;;12.40;99.90;;;;;;5024154;28;20115;-78
2022/11/10 10:45:24;;;;;;;28.02;6.30;;;12.40;99.90;;;;;;5005686;28;20060;-78
2022/11/10 10:47:52;;;;;;;27.55;6.88;;;12.50;99.90;;;;;;5025732;28;20053;-79
2022/11/10 10:50:26;;;;;;;22.48;6.70;;;12.40;99.90;;;;;;5026254;28;20133;-79
2022/11/10 10:53:07;;;;;;;20.92;6.13;;;12.50;99.90;;;;;;5035236;28;20041;-79
2022/11/10 10:55:35;;;;;;;23.80;6.78;;;12.50;99.90;;;;;;5027962;28;20054;-79
2022/11/10 10:58:17;;;;;;;26.25;7.15;;;12.50;99.90;;;;;;5025715;28;20256;-74
2022/11/10 11:00:45;;;;;;;23.17;8.27;;;12.50;99.90;;;;;;5021032;28;20049;-77
2022/11/10 11:03:20;;;;;;;22.83;6.55;;;12.50;99.90;;;;;;5000312;28;20052;-77
2022/11/10 11:06:03;;;;;;;24.73;7.35;;;12.60;99.90;;;;;;5020860;28;20045;-77
2022/11/10 11:08:29;;;;;;;28.63;6.28;;;12.60;99.90;;;;;;5022512;28;20546;-78
2022/11/10 11:10:55;;;;;;;23.75;6.40;;;12.70;99.90;;;;;;5006101;28;20038;-79
2022/11/10 11:13:21;;;;;;;28.65;6.85;;;12.70;99.90;;;;;;5002391;28;20061;-79
2022/11/10 11:16:06;;;;;;;22.73;6.03;;;12.60;99.90;;;;;;5006959;28;20168;-79
2022/11/10 11:18:34;;;;;;;20.33;6.60;;;12.70;99.90;;;;;;5022107;28;20041;-77
2022/11/10 11:21:18;;;;;;;26.70;6.00;;;12.60;99.90;;;;;;5027998;28;20835;-77
2022/11/10 11:24:05;;;;;;;31.15;7.53;;;12.50;99.90;;;;;;5028785;28;20051;-78
2022/11/10 11:26:50;;;;;;;19.95;5.05;;;12.60;99.90;;;;;;5026312;28;20612;-78
2022/11/10 11:29:35;;;;;;;27.13;5.85;;;12.50;99.90;;;;;;5030439;28;20117;-78
2022/11/10 11:32:20;;;;;;;27.48;5.95;;;12.50;99.90;;;;;;5025974;28;20516;-77
2022/11/10 11:35:11;;;;;;;26.02;6.00;;;12.50;99.90;;;;;;5022942;28;20140;-78
2022/11/10 11:37:58;;;;;;;20.90;6.80;;;12.40;99.90;;;;;;5026274;28;20080;-79
2022/11/10 11:40:58;;;;;;;29.33;6.75;;;12.40;99.90;;;;;;5010813;28;20284;-78
2022/11/10 11:43:47;;;;;;;20.23;5.60;;;12.50;99.90;;;;;;5009088;28;20081;-78
2022/11/10 11:46:30;;;;;;;23.23;6.13;;;12.50;99.90;;;;;;5023396;28;20048;-78
2022/11/10 11:49:05;;;;;;;27.95;6.43;;;12.50;99.90;;;;;;5025254;28;20452;-78
2022/11/10 11:52:08;;;;;;;29.00;6.35;;;12.50;99.90;;;;;;5012113;28;20052;-77
2022/11/10 11:55:06;;;;;;;19.83;5.43;;;12.50;99.90;;;;;;5010736;28;20057;-87
2022/11/10 11:58:01;;;;;;;19.00;5.88;;;12.60;99.90;;;;;;5024637;28;20038;-85
2022/11/10 12:00:30;;;;;;;20.73;6.53;;;12.60;99.90;;;;;;5003143;28;20063;-85
2022/11/10 12:03:24;;;;;;;28.55;6.70;;;12.60;99.90;;;;;;5020219;28;20495;-84
2022/11/10 12:05:49;;;;;;;22.90;5.82;;;12.60;99.90;;;;;;5010281;28;20045;-84
2022/11/10 12:08:15;;;;;;;27.30;5.47;;;12.70;99.90;;;;;;5024207;28;20037;-86
2022/11/10 12:11:02;;;;;;;26.58;6.25;;;12.70;99.90;;;;;;5009444;28;20053;-84
2022/11/10 12:14:00;;;;;;;30.70;6.72;;;12.70;99.90;;;;;;5011800;28;20045;-84
2022/11/10 12:16:30;;;;;;;27.08;7.47;;;12.80;99.90;;;;;;5025001;28;20050;-85
2022/11/10 12:19:28;;;;;;;27.67;6.70;;;12.70;99.90;;;;;;5026686;28;20057;-85
2022/11/10 12:22:09;;;;;;;22.73;6.40;;;12.80;99.90;;;;;;5004408;28;20084;-85
2022/11/10 12:24:44;;;;;;;24.10;6.22;;;12.80;99.90;;;;;;5006475;28;20065;-84
2022/11/10 12:27:39;;;;;;;27.80;5.75;;;12.80;99.90;;;;;;5008455;28;20092;-84
2022/11/10 12:30:11;;;;;;;33.22;5.88;;;12.70;99.90;;;;;;5022086;28;20500;-85
2022/11/10 12:32:57;;;;;;;24.08;6.00;;;12.70;99.90;;;;;;5008655;28;20134;-83
2022/11/10 12:35:44;;;;;;;26.02;4.38;;;12.60;99.90;;;;;;5020357;28;20049;-85
2022/11/10 12:38:18;;;;;;;19.15;5.18;;;12.70;99.90;;;;;;5004059;28;20446;-84
2022/11/10 12:41:03;;;;;;;21.30;4.93;;;12.70;99.90;;;;;;5001614;28;20409;-83
2022/11/10 12:43:53;;;;;;;21.80;4.70;;;12.70;99.90;;;;;;5023090;28;20041;-77
2022/11/10 12:46:18;;;;;;;28.42;6.10;;;12.80;99.90;;;;;;5022951;28;20041;-77
2022/11/10 12:49:01;;;;;;;38.95;7.68;;;12.70;99.90;;;;;;5029583;28;20049;-77
2022/11/10 12:51:32;;;;;;;29.53;5.77;;;12.80;99.90;;;;;;5023665;28;20099;-77
2022/11/10 12:53:58;;;;;;;26.88;6.43;;;12.80;99.90;;;;;;5010447;28;20046;-77
2022/11/10 12:56:51;;;;;;;27.05;5.78;;;12.80;99.90;;;;;;5005465;28;20199;-78
2022/11/10 12:59:20;;;;;;;30.38;6.35;;;12.80;99.90;;;;;;5005220;28;20053;-77
2022/11/10 13:01:48;;;;;;;22.85;5.85;;;12.80;99.90;;;;;;5007853;28;20645;-77
2022/11/10 13:04:15;;;;;;;28.23;5.65;;;12.80;99.90;;;;;;5024506;28;20041;-78
2022/11/10 13:07:02;;;;;;;29.38;4.90;;;12.60;99.90;;;;;;5024281;28;20037;-78